EmailTwitter


Observations de surface / Québec / CYUL (71627)

Régions: Québec | Canada | États-Unis | Europe | France | UK | Ailleurs
Station
Affichage
Infos & localisation pour CYUL (71627) | Aide pour décoder les METARs

Observations prises le 2018-07-20 à 21H00 UTC à MONTREAL INTL A, QB (CYUL)

Etat du ciel: quelques nuages.

Température: 31.0 Celsius

Point de rosée: 12.0 Celsius

Humidité relative: 31%

Indice Humidex: 33.

Vents: Sud-est à 15 km/h ou 8 noeuds.

Rafale du vent: 28 km/h ou 15 noeuds.

Pression au niveau moyen de la mer: 101.75 kilopascals.

Calage altimétrique: 101.73 kilopascals ou 30.04 pouces de mercure.

Visibilité horizontale: 30.00 milles terrestres ou 48.00 kilomètres.

Observation METAR:

CYUL 202100Z 12008G15KT 30SM FEW065 FEW250 31/12 A3004 RMK CF1CI1 CF TR SLP175

DENSITY ALT 1900FT=